sensor_id;sensor_type;location;lat;lon;timestamp;temperature;humidity
23717;DHT22;22094;52.130;5.598;2022-11-14T00:00:53;5.40;99.90
23717;DHT22;22094;52.130;5.598;2022-11-14T00:03:19;5.30;99.90
23717;DHT22;22094;52.130;5.598;2022-11-14T00:05:45;5.40;99.90
23717;DHT22;22094;52.130;5.598;2022-11-14T00:08:20;5.40;99.90
23717;DHT22;22094;52.130;5.598;2022-11-14T00:10:47;5.40;99.90
23717;DHT22;22094;52.130;5.598;2022-11-14T00:13:13;5.40;99.90
23717;DHT22;22094;52.130;5.598;2022-11-14T00:15:39;5.30;99.90
23717;DHT22;22094;52.130;5.598;2022-11-14T00:18:05;5.30;99.90
23717;DHT22;22094;52.130;5.598;2022-11-14T00:20:31;5.30;99.90
23717;DHT22;22094;52.130;5.598;2022-11-14T00:22:57;5.20;99.90
23717;DHT22;22094;52.130;5.598;2022-11-14T00:25:22;5.20;99.90
23717;DHT22;22094;52.130;5.598;2022-11-14T00:27:48;5.10;99.90
23717;DHT22;22094;52.130;5.598;2022-11-14T00:30:14;5.00;99.90
23717;DHT22;22094;52.130;5.598;2022-11-14T00:32:39;5.10;99.90
23717;DHT22;22094;52.130;5.598;2022-11-14T00:35:05;5.10;99.90
23717;DHT22;22094;52.130;5.598;2022-11-14T00:37:31;5.00;99.90
23717;DHT22;22094;52.130;5.598;2022-11-14T00:39:57;5.00;99.90
23717;DHT22;22094;52.130;5.598;2022-11-14T00:42:22;4.90;99.90
23717;DHT22;22094;52.130;5.598;2022-11-14T00:44:48;4.90;99.90
23717;DHT22;22094;52.130;5.598;2022-11-14T00:47:13;4.90;99.90
23717;DHT22;22094;52.130;5.598;2022-11-14T00:49:39;4.80;99.90
23717;DHT22;22094;52.130;5.598;2022-11-14T00:52:04;4.80;99.90
23717;DHT22;22094;52.130;5.598;2022-11-14T00:54:30;4.80;99.90
23717;DHT22;22094;52.130;5.598;2022-11-14T00:56:55;4.80;99.90
23717;DHT22;22094;52.130;5.598;2022-11-14T00:59:21;4.70;99.90
23717;DHT22;22094;52.130;5.598;2022-11-14T01:01:46;4.70;99.90
23717;DHT22;22094;52.130;5.598;2022-11-14T01:04:12;4.60;99.90
23717;DHT22;22094;52.130;5.598;2022-11-14T01:06:38;4.60;99.90
23717;DHT22;22094;52.130;5.598;2022-11-14T01:09:03;4.50;99.90
23717;DHT22;22094;52.130;5.598;2022-11-14T01:11:29;4.50;99.90
23717;DHT22;22094;52.130;5.598;2022-11-14T01:13:54;4.40;99.90
23717;DHT22;22094;52.130;5.598;2022-11-14T01:16:20;4.30;99.90
23717;DHT22;22094;52.130;5.598;2022-11-14T01:18:46;4.40;99.90
23717;DHT22;22094;52.130;5.598;2022-11-14T01:21:12;4.40;99.90
23717;DHT22;22094;52.130;5.598;2022-11-14T01:23:38;4.70;99.90
23717;DHT22;22094;52.130;5.598;2022-11-14T01:26:07;4.30;99.90
23717;DHT22;22094;52.130;5.598;2022-11-14T01:28:33;4.30;99.90
23717;DHT22;22094;52.130;5.598;2022-11-14T01:31:15;4.30;99.90
23717;DHT22;22094;52.130;5.598;2022-11-14T01:33:42;4.40;99.90
23717;DHT22;22094;52.130;5.598;2022-11-14T01:36:08;4.30;99.90
23717;DHT22;22094;52.130;5.598;2022-11-14T01:38:34;4.30;99.90
23717;DHT22;22094;52.130;5.598;2022-11-14T01:41:00;4.30;99.90
23717;DHT22;22094;52.130;5.598;2022-11-14T01:43:34;4.20;99.90
23717;DHT22;22094;52.130;5.598;2022-11-14T01:46:05;4.20;99.90
23717;DHT22;22094;52.130;5.598;2022-11-14T01:48:34;4.30;99.90
23717;DHT22;22094;52.130;5.598;2022-11-14T01:51:06;4.20;99.90
23717;DHT22;22094;52.130;5.598;2022-11-14T01:53:33;4.30;99.90
23717;DHT22;22094;52.130;5.598;2022-11-14T01:56:02;4.40;99.90
23717;DHT22;22094;52.130;5.598;2022-11-14T01:58:28;4.60;99.90
23717;DHT22;22094;52.130;5.598;2022-11-14T02:00:55;4.10;99.90
23717;DHT22;22094;52.130;5.598;2022-11-14T02:03:21;4.30;99.90
23717;DHT22;22094;52.130;5.598;2022-11-14T02:05:47;4.90;99.90
23717;DHT22;22094;52.130;5.598;2022-11-14T02:08:14;4.00;99.90
23717;DHT22;22094;52.130;5.598;2022-11-14T02:10:41;3.90;99.90
23717;DHT22;22094;52.130;5.598;2022-11-14T02:13:07;3.80;99.90
23717;DHT22;22094;52.130;5.598;2022-11-14T02:18:02;3.80;99.90
23717;DHT22;22094;52.130;5.598;2022-11-14T02:20:29;3.80;99.90
23717;DHT22;22094;52.130;5.598;2022-11-14T02:22:58;3.70;99.90
23717;DHT22;22094;52.130;5.598;2022-11-14T02:25:24;3.70;99.90
23717;DHT22;22094;52.130;5.598;2022-11-14T02:27:50;3.60;99.90
23717;DHT22;22094;52.130;5.598;2022-11-14T02:30:19;3.80;99.90
23717;DHT22;22094;52.130;5.598;2022-11-14T02:32:45;3.60;99.90
23717;DHT22;22094;52.130;5.598;2022-11-14T02:35:11;3.70;99.90
23717;DHT22;22094;52.130;5.598;2022-11-14T02:37:37;3.60;99.90
23717;DHT22;22094;52.130;5.598;2022-11-14T02:40:03;3.60;99.90
23717;DHT22;22094;52.130;5.598;2022-11-14T02:42:29;3.50;99.90
23717;DHT22;22094;52.130;5.598;2022-11-14T02:44:55;3.50;99.90
23717;DHT22;22094;52.130;5.598;2022-11-14T02:47:20;3.50;99.90
23717;DHT22;22094;52.130;5.598;2022-11-14T02:49:46;3.50;99.90
23717;DHT22;22094;52.130;5.598;2022-11-14T02:52:11;3.60;99.90
23717;DHT22;22094;52.130;5.598;2022-11-14T02:54:37;3.50;99.90
23717;DHT22;22094;52.130;5.598;2022-11-14T02:57:02;3.50;99.90
23717;DHT22;22094;52.130;5.598;2022-11-14T02:59:28;3.50;99.90
23717;DHT22;22094;52.130;5.598;2022-11-14T03:01:53;3.40;99.90
23717;DHT22;22094;52.130;5.598;2022-11-14T03:04:19;3.40;99.90
23717;DHT22;22094;52.130;5.598;2022-11-14T03:06:45;3.40;99.90
23717;DHT22;22094;52.130;5.598;2022-11-14T03:09:10;3.40;99.90
23717;DHT22;22094;52.130;5.598;2022-11-14T03:11:37;3.40;99.90
23717;DHT22;22094;52.130;5.598;2022-11-14T03:14:02;3.30;99.90
23717;DHT22;22094;52.130;5.598;2022-11-14T03:16:28;3.20;99.90
23717;DHT22;22094;52.130;5.598;2022-11-14T03:18:53;3.20;99.90
23717;DHT22;22094;52.130;5.598;2022-11-14T03:21:21;3.30;99.90
23717;DHT22;22094;52.130;5.598;2022-11-14T03:23:47;3.30;99.90
23717;DHT22;22094;52.130;5.598;2022-11-14T03:26:14;3.20;99.90
23717;DHT22;22094;52.130;5.598;2022-11-14T03:28:40;3.20;99.90
23717;DHT22;22094;52.130;5.598;2022-11-14T03:31:07;3.20;99.90
23717;DHT22;22094;52.130;5.598;2022-11-14T03:33:34;3.20;99.90
23717;DHT22;22094;52.130;5.598;2022-11-14T03:35:59;3.10;99.90
23717;DHT22;22094;52.130;5.598;2022-11-14T03:38:25;3.10;99.90
23717;DHT22;22094;52.130;5.598;2022-11-14T03:40:51;3.20;99.90
23717;DHT22;22094;52.130;5.598;2022-11-14T03:43:18;3.10;99.90
23717;DHT22;22094;52.130;5.598;2022-11-14T03:45:45;3.20;99.90
23717;DHT22;22094;52.130;5.598;2022-11-14T03:48:11;3.20;99.90
23717;DHT22;22094;52.130;5.598;2022-11-14T03:50:37;3.00;99.90
23717;DHT22;22094;52.130;5.598;2022-11-14T03:53:03;3.20;99.90
23717;DHT22;22094;52.130;5.598;2022-11-14T03:55:28;3.20;99.90
23717;DHT22;22094;52.130;5.598;2022-11-14T03:57:54;3.20;99.90
23717;DHT22;22094;52.130;5.598;2022-11-14T04:00:20;3.10;99.90
23717;DHT22;22094;52.130;5.598;2022-11-14T04:02:45;3.10;99.90
23717;DHT22;22094;52.130;5.598;2022-11-14T04:05:12;3.20;99.90
23717;DHT22;22094;52.130;5.598;2022-11-14T04:07:37;3.20;99.90
23717;DHT22;22094;52.130;5.598;2022-11-14T04:10:04;3.20;99.90
23717;DHT22;22094;52.130;5.598;2022-11-14T04:12:30;3.20;99.90
23717;DHT22;22094;52.130;5.598;2022-11-14T04:14:55;3.30;99.90
23717;DHT22;22094;52.130;5.598;2022-11-14T04:17:21;3.20;99.90
23717;DHT22;22094;52.130;5.598;2022-11-14T04:19:46;3.10;99.90
23717;DHT22;22094;52.130;5.598;2022-11-14T04:22:12;3.10;99.90
23717;DHT22;22094;52.130;5.598;2022-11-14T04:24:37;3.10;99.90
23717;DHT22;22094;52.130;5.598;2022-11-14T04:27:03;3.00;99.90
23717;DHT22;22094;52.130;5.598;2022-11-14T04:29:29;3.10;99.90
23717;DHT22;22094;52.130;5.598;2022-11-14T04:31:54;3.00;99.90
23717;DHT22;22094;52.130;5.598;2022-11-14T04:34:20;3.10;99.90
23717;DHT22;22094;52.130;5.598;2022-11-14T04:36:45;3.10;99.90
23717;DHT22;22094;52.130;5.598;2022-11-14T04:39:11;3.10;99.90
23717;DHT22;22094;52.130;5.598;2022-11-14T04:41:36;3.10;99.90
23717;DHT22;22094;52.130;5.598;2022-11-14T04:44:02;3.00;99.90
23717;DHT22;22094;52.130;5.598;2022-11-14T04:46:28;2.90;99.90
23717;DHT22;22094;52.130;5.598;2022-11-14T04:48:53;2.90;99.90
23717;DHT22;22094;52.130;5.598;2022-11-14T04:51:19;2.80;99.90
23717;DHT22;22094;52.130;5.598;2022-11-14T04:53:45;2.80;99.90
23717;DHT22;22094;52.130;5.598;2022-11-14T04:56:10;2.80;99.90
23717;DHT22;22094;52.130;5.598;2022-11-14T04:58:36;2.60;99.90
23717;DHT22;22094;52.130;5.598;2022-11-14T05:01:08;2.50;99.90
23717;DHT22;22094;52.130;5.598;2022-11-14T05:03:34;2.40;99.90
23717;DHT22;22094;52.130;5.598;2022-11-14T05:06:00;2.30;99.90
23717;DHT22;22094;52.130;5.598;2022-11-14T05:08:26;2.30;99.90
23717;DHT22;22094;52.130;5.598;2022-11-14T05:10:51;2.40;99.90
23717;DHT22;22094;52.130;5.598;2022-11-14T05:13:17;2.30;99.90
23717;DHT22;22094;52.130;5.598;2022-11-14T05:15:42;2.30;99.90
23717;DHT22;22094;52.130;5.598;2022-11-14T05:18:08;2.30;99.90
23717;DHT22;22094;52.130;5.598;2022-11-14T05:20:33;2.30;99.90
23717;DHT22;22094;52.130;5.598;2022-11-14T05:22:59;2.30;99.90
23717;DHT22;22094;52.130;5.598;2022-11-14T05:25:25;2.30;99.90
23717;DHT22;22094;52.130;5.598;2022-11-14T05:27:50;2.40;99.90
23717;DHT22;22094;52.130;5.598;2022-11-14T05:30:19;2.30;99.90
23717;DHT22;22094;52.130;5.598;2022-11-14T05:32:45;2.40;99.90
23717;DHT22;22094;52.130;5.598;2022-11-14T05:35:11;2.40;99.90
23717;DHT22;22094;52.130;5.598;2022-11-14T05:37:36;2.40;99.90
23717;DHT22;22094;52.130;5.598;2022-11-14T05:40:03;2.40;99.90
23717;DHT22;22094;52.130;5.598;2022-11-14T05:42:29;2.40;99.90
23717;DHT22;22094;52.130;5.598;2022-11-14T05:44:54;2.40;99.90
23717;DHT22;22094;52.130;5.598;2022-11-14T05:47:20;2.40;99.90
23717;DHT22;22094;52.130;5.598;2022-11-14T05:49:46;2.40;99.90
23717;DHT22;22094;52.130;5.598;2022-11-14T05:52:12;2.40;99.90
23717;DHT22;22094;52.130;5.598;2022-11-14T05:54:37;2.30;99.90
23717;DHT22;22094;52.130;5.598;2022-11-14T05:57:03;2.30;99.90
23717;DHT22;22094;52.130;5.598;2022-11-14T05:59:29;2.30;99.90
23717;DHT22;22094;52.130;5.598;2022-11-14T06:01:55;2.30;99.90
23717;DHT22;22094;52.130;5.598;2022-11-14T06:04:20;2.20;99.90
23717;DHT22;22094;52.130;5.598;2022-11-14T06:06:46;2.20;99.90
23717;DHT22;22094;52.130;5.598;2022-11-14T06:09:11;2.10;99.90
23717;DHT22;22094;52.130;5.598;2022-11-14T06:11:37;2.10;99.90
23717;DHT22;22094;52.130;5.598;2022-11-14T06:14:03;2.10;99.90
23717;DHT22;22094;52.130;5.598;2022-11-14T06:16:28;2.10;99.90
23717;DHT22;22094;52.130;5.598;2022-11-14T06:18:54;2.00;99.90
23717;DHT22;22094;52.130;5.598;2022-11-14T06:21:22;1.90;99.90
23717;DHT22;22094;52.130;5.598;2022-11-14T06:23:48;1.80;99.90
23717;DHT22;22094;52.130;5.598;2022-11-14T06:26:27;1.80;99.90
23717;DHT22;22094;52.130;5.598;2022-11-14T06:28:57;1.80;99.90
23717;DHT22;22094;52.130;5.598;2022-11-14T06:31:24;1.80;99.90
23717;DHT22;22094;52.130;5.598;2022-11-14T06:33:50;1.80;99.90
23717;DHT22;22094;52.130;5.598;2022-11-14T06:36:16;1.90;99.90
23717;DHT22;22094;52.130;5.598;2022-11-14T06:38:42;1.90;99.90
23717;DHT22;22094;52.130;5.598;2022-11-14T06:41:10;1.90;99.90
23717;DHT22;22094;52.130;5.598;2022-11-14T06:43:38;2.00;99.90
23717;DHT22;22094;52.130;5.598;2022-11-14T06:46:05;1.90;99.90
23717;DHT22;22094;52.130;5.598;2022-11-14T06:48:31;1.90;99.90
23717;DHT22;22094;52.130;5.598;2022-11-14T06:50:57;1.90;99.90
23717;DHT22;22094;52.130;5.598;2022-11-14T06:53:24;2.10;99.90
23717;DHT22;22094;52.130;5.598;2022-11-14T06:58:28;2.20;99.90
23717;DHT22;22094;52.130;5.598;2022-11-14T07:00:54;2.20;99.90
23717;DHT22;22094;52.130;5.598;2022-11-14T07:03:20;2.20;99.90
23717;DHT22;22094;52.130;5.598;2022-11-14T07:05:46;2.30;99.90
23717;DHT22;22094;52.130;5.598;2022-11-14T07:08:12;2.30;99.90
23717;DHT22;22094;52.130;5.598;2022-11-14T07:10:37;2.30;99.90
23717;DHT22;22094;52.130;5.598;2022-11-14T07:13:03;2.30;99.90
23717;DHT22;22094;52.130;5.598;2022-11-14T07:15:29;2.30;99.90
23717;DHT22;22094;52.130;5.598;2022-11-14T07:17:54;2.40;99.90
23717;DHT22;22094;52.130;5.598;2022-11-14T07:20:20;2.40;99.90
23717;DHT22;22094;52.130;5.598;2022-11-14T07:22:46;2.40;99.90
23717;DHT22;22094;52.130;5.598;2022-11-14T07:25:12;2.40;99.90
23717;DHT22;22094;52.130;5.598;2022-11-14T07:27:38;2.40;99.90
23717;DHT22;22094;52.130;5.598;2022-11-14T07:30:04;2.40;99.90
23717;DHT22;22094;52.130;5.598;2022-11-14T07:32:30;2.50;99.90
23717;DHT22;22094;52.130;5.598;2022-11-14T07:34:56;2.50;99.90
23717;DHT22;22094;52.130;5.598;2022-11-14T07:37:21;2.50;99.90
23717;DHT22;22094;52.130;5.598;2022-11-14T07:39:47;2.50;99.90
23717;DHT22;22094;52.130;5.598;2022-11-14T07:42:12;2.50;99.90
23717;DHT22;22094;52.130;5.598;2022-11-14T07:44:38;2.50;99.90
23717;DHT22;22094;52.130;5.598;2022-11-14T07:47:03;2.50;99.90
23717;DHT22;22094;52.130;5.598;2022-11-14T07:49:29;2.40;99.90
23717;DHT22;22094;52.130;5.598;2022-11-14T07:51:55;2.50;99.90
23717;DHT22;22094;52.130;5.598;2022-11-14T07:54:20;2.60;99.90
23717;DHT22;22094;52.130;5.598;2022-11-14T07:56:46;2.60;99.90
23717;DHT22;22094;52.130;5.598;2022-11-14T07:59:11;2.70;99.90
23717;DHT22;22094;52.130;5.598;2022-11-14T08:04:03;3.00;99.90
23717;DHT22;22094;52.130;5.598;2022-11-14T08:06:28;3.00;99.90
23717;DHT22;22094;52.130;5.598;2022-11-14T08:08:54;3.10;99.90
23717;DHT22;22094;52.130;5.598;2022-11-14T08:11:20;3.10;99.90
23717;DHT22;22094;52.130;5.598;2022-11-14T08:14:05;4.30;99.90
23717;DHT22;22094;52.130;5.598;2022-11-14T08:16:31;1.80;99.90
23717;DHT22;22094;52.130;5.598;2022-11-14T08:18:57;3.30;99.90
23717;DHT22;22094;52.130;5.598;2022-11-14T08:21:22;3.40;99.90
23717;DHT22;22094;52.130;5.598;2022-11-14T08:23:48;3.40;99.90
23717;DHT22;22094;52.130;5.598;2022-11-14T08:26:13;3.50;99.90
23717;DHT22;22094;52.130;5.598;2022-11-14T08:28:39;3.60;99.90
23717;DHT22;22094;52.130;5.598;2022-11-14T08:31:04;3.60;99.90
23717;DHT22;22094;52.130;5.598;2022-11-14T08:33:30;3.70;99.90
23717;DHT22;22094;52.130;5.598;2022-11-14T08:36:03;4.10;99.90
23717;DHT22;22094;52.130;5.598;2022-11-14T08:38:30;3.80;99.90
23717;DHT22;22094;52.130;5.598;2022-11-14T08:41:00;3.90;99.90
23717;DHT22;22094;52.130;5.598;2022-11-14T08:43:26;4.00;99.90
23717;DHT22;22094;52.130;5.598;2022-11-14T08:45:55;4.20;99.90
23717;DHT22;22094;52.130;5.598;2022-11-14T08:48:20;4.20;99.90
23717;DHT22;22094;52.130;5.598;2022-11-14T08:50:46;4.60;99.90
23717;DHT22;22094;52.130;5.598;2022-11-14T08:53:11;4.40;99.90
23717;DHT22;22094;52.130;5.598;2022-11-14T08:55:46;4.50;99.90
23717;DHT22;22094;52.130;5.598;2022-11-14T09:03:08;4.90;99.90
23717;DHT22;22094;52.130;5.598;2022-11-14T09:05:34;4.80;99.90
23717;DHT22;22094;52.130;5.598;2022-11-14T09:08:00;4.90;99.90
23717;DHT22;22094;52.130;5.598;2022-11-14T09:12:55;5.00;99.90
23717;DHT22;22094;52.130;5.598;2022-11-14T09:17:47;5.30;99.90
23717;DHT22;22094;52.130;5.598;2022-11-14T09:20:13;5.40;99.90
23717;DHT22;22094;52.130;5.598;2022-11-14T09:25:05;5.60;99.90
23717;DHT22;22094;52.130;5.598;2022-11-14T09:27:31;6.10;99.90
23717;DHT22;22094;52.130;5.598;2022-11-14T09:29:56;5.80;99.90
23717;DHT22;22094;52.130;5.598;2022-11-14T09:32:22;6.10;99.90
23717;DHT22;22094;52.130;5.598;2022-11-14T09:34:47;3.40;99.90
23717;DHT22;22094;52.130;5.598;2022-11-14T09:39:39;8.20;99.90
23717;DHT22;22094;52.130;5.598;2022-11-14T09:44:59;8.40;99.90
23717;DHT22;22094;52.130;5.598;2022-11-14T09:47:29;7.00;99.90
23717;DHT22;22094;52.130;5.598;2022-11-14T09:50:03;6.60;99.90
23717;DHT22;22094;52.130;5.598;2022-11-14T09:52:38;4.50;99.90
23717;DHT22;22094;52.130;5.598;2022-11-14T09:55:20;6.30;99.90
23717;DHT22;22094;52.130;5.598;2022-11-14T09:57:47;7.60;99.90
23717;DHT22;22094;52.130;5.598;2022-11-14T10:03:10;8.70;99.90
23717;DHT22;22094;52.130;5.598;2022-11-14T10:11:34;8.20;99.90
23717;DHT22;22094;52.130;5.598;2022-11-14T10:14:31;10.10;99.90
23717;DHT22;22094;52.130;5.598;2022-11-14T10:19:59;8.50;99.90
23717;DHT22;22094;52.130;5.598;2022-11-14T10:26:35;8.80;99.90
23717;DHT22;22094;52.130;5.598;2022-11-14T10:34:15;8.70;99.90
23717;DHT22;22094;52.130;5.598;2022-11-14T10:39:38;8.80;99.90
23717;DHT22;22094;52.130;5.598;2022-11-14T10:45:10;9.00;99.90
23717;DHT22;22094;52.130;5.598;2022-11-14T10:47:47;8.60;99.90
23717;DHT22;22094;52.130;5.598;2022-11-14T10:52:45;8.70;99.90
23717;DHT22;22094;52.130;5.598;2022-11-14T10:55:17;8.40;99.90
23717;DHT22;22094;52.130;5.598;2022-11-14T10:57:44;10.70;99.90
23717;DHT22;22094;52.130;5.598;2022-11-14T11:00:16;9.20;99.90
23717;DHT22;22094;52.130;5.598;2022-11-14T11:02:53;10.70;99.90
23717;DHT22;22094;52.130;5.598;2022-11-14T11:05:23;9.20;99.90
23717;DHT22;22094;52.130;5.598;2022-11-14T11:10:39;9.50;99.90
23717;DHT22;22094;52.130;5.598;2022-11-14T11:13:34;11.00;99.90
23717;DHT22;22094;52.130;5.598;2022-11-14T11:16:01;9.30;99.90
23717;DHT22;22094;52.130;5.598;2022-11-14T11:18:33;9.70;99.90
23717;DHT22;22094;52.130;5.598;2022-11-14T11:21:14;9.80;99.90
23717;DHT22;22094;52.130;5.598;2022-11-14T11:23:51;9.70;99.90
23717;DHT22;22094;52.130;5.598;2022-11-14T11:31:09;9.50;99.90
23717;DHT22;22094;52.130;5.598;2022-11-14T11:33:37;9.80;99.90
23717;DHT22;22094;52.130;5.598;2022-11-14T11:36:06;9.30;99.90
23717;DHT22;22094;52.130;5.598;2022-11-14T11:41:24;9.60;99.90
23717;DHT22;22094;52.130;5.598;2022-11-14T11:43:59;9.70;99.90
23717;DHT22;22094;52.130;5.598;2022-11-14T11:51:44;10.00;99.90
23717;DHT22;22094;52.130;5.598;2022-11-14T11:54:17;9.90;99.90
23717;DHT22;22094;52.130;5.598;2022-11-14T11:59:21;10.10;99.90
23717;DHT22;22094;52.130;5.598;2022-11-14T12:01:50;10.00;99.90
23717;DHT22;22094;52.130;5.598;2022-11-14T12:06:56;10.00;99.90
23717;DHT22;22094;52.130;5.598;2022-11-14T12:09:28;9.40;99.90
23717;DHT22;22094;52.130;5.598;2022-11-14T12:12:01;9.90;99.90
23717;DHT22;22094;52.130;5.598;2022-11-14T12:14:51;10.50;99.90
23717;DHT22;22094;52.130;5.598;2022-11-14T12:30:55;9.70;99.90
23717;DHT22;22094;52.130;5.598;2022-11-14T12:33:22;9.90;99.90
23717;DHT22;22094;52.130;5.598;2022-11-14T12:35:58;11.70;99.90
23717;DHT22;22094;52.130;5.598;2022-11-14T12:38:29;9.80;99.90
23717;DHT22;22094;52.130;5.598;2022-11-14T12:40:59;9.80;99.90
23717;DHT22;22094;52.130;5.598;2022-11-14T12:43:37;9.80;99.90
23717;DHT22;22094;52.130;5.598;2022-11-14T12:46:03;9.00;99.90
23717;DHT22;22094;52.130;5.598;2022-11-14T12:48:34;9.70;99.90
23717;DHT22;22094;52.130;5.598;2022-11-14T12:51:01;8.30;99.90
23717;DHT22;22094;52.130;5.598;2022-11-14T12:59:03;9.10;99.90
23717;DHT22;22094;52.130;5.598;2022-11-14T13:10:00;9.00;99.90
23717;DHT22;22094;52.130;5.598;2022-11-14T13:12:32;8.90;99.90
23717;DHT22;22094;52.130;5.598;2022-11-14T13:15:45;8.80;99.90
23717;DHT22;22094;52.130;5.598;2022-11-14T13:18:30;9.00;99.90
23717;DHT22;22094;52.130;5.598;2022-11-14T13:21:26;9.00;99.90
23717;DHT22;22094;52.130;5.598;2022-11-14T13:24:15;11.80;99.90
23717;DHT22;22094;52.130;5.598;2022-11-14T13:26:46;8.70;99.90
23717;DHT22;22094;52.130;5.598;2022-11-14T13:32:00;8.90;99.90
23717;DHT22;22094;52.130;5.598;2022-11-14T13:37:39;8.60;99.90
23717;DHT22;22094;52.130;5.598;2022-11-14T13:43:14;8.80;99.90
23717;DHT22;22094;52.130;5.598;2022-11-14T13:51:15;8.60;99.90
23717;DHT22;22094;52.130;5.598;2022-11-14T13:56:30;8.60;99.90
23717;DHT22;22094;52.130;5.598;2022-11-14T14:04:43;6.60;99.90
23717;DHT22;22094;52.130;5.598;2022-11-14T14:07:36;8.70;99.90
23717;DHT22;22094;52.130;5.598;2022-11-14T14:15:39;8.60;99.90
23717;DHT22;22094;52.130;5.598;2022-11-14T14:18:19;8.70;99.90
23717;DHT22;22094;52.130;5.598;2022-11-14T14:21:56;8.50;99.90
23717;DHT22;22094;52.130;5.598;2022-11-14T14:24:03;8.40;99.90
23717;DHT22;22094;52.130;5.598;2022-11-14T14:32:12;8.40;99.90
23717;DHT22;22094;52.130;5.598;2022-11-14T14:34:37;8.40;99.90
23717;DHT22;22094;52.130;5.598;2022-11-14T14:37:21;8.40;99.90
23717;DHT22;22094;52.130;5.598;2022-11-14T14:40:00;8.40;99.90
23717;DHT22;22094;52.130;5.598;2022-11-14T14:42:32;8.40;99.90
23717;DHT22;22094;52.130;5.598;2022-11-14T14:45:00;8.40;99.90
23717;DHT22;22094;52.130;5.598;2022-11-14T14:50:00;8.40;99.90
23717;DHT22;22094;52.130;5.598;2022-11-14T14:52:35;8.40;99.90
23717;DHT22;22094;52.130;5.598;2022-11-14T14:55:05;8.30;99.90
23717;DHT22;22094;52.130;5.598;2022-11-14T14:57:33;8.30;99.90
23717;DHT22;22094;52.130;5.598;2022-11-14T15:00:00;8.30;99.90
23717;DHT22;22094;52.130;5.598;2022-11-14T15:02:27;8.30;99.90
23717;DHT22;22094;52.130;5.598;2022-11-14T15:04:54;8.20;99.90
23717;DHT22;22094;52.130;5.598;2022-11-14T15:07:22;8.20;99.90
23717;DHT22;22094;52.130;5.598;2022-11-14T15:09:52;8.20;99.90
23717;DHT22;22094;52.130;5.598;2022-11-14T15:12:18;8.20;99.90
23717;DHT22;22094;52.130;5.598;2022-11-14T15:14:44;8.20;99.90
23717;DHT22;22094;52.130;5.598;2022-11-14T15:17:11;8.40;99.90
23717;DHT22;22094;52.130;5.598;2022-11-14T15:19:39;8.20;99.90
23717;DHT22;22094;52.130;5.598;2022-11-14T15:24:42;8.10;99.90
23717;DHT22;22094;52.130;5.598;2022-11-14T15:27:16;8.00;99.90
23717;DHT22;22094;52.130;5.598;2022-11-14T15:29:47;8.10;99.90
23717;DHT22;22094;52.130;5.598;2022-11-14T15:32:22;8.00;99.90
23717;DHT22;22094;52.130;5.598;2022-11-14T15:35:26;8.00;99.90
23717;DHT22;22094;52.130;5.598;2022-11-14T15:40:39;7.80;99.90
23717;DHT22;22094;52.130;5.598;2022-11-14T15:48:51;7.80;99.90
23717;DHT22;22094;52.130;5.598;2022-11-14T15:51:17;7.80;99.90
23717;DHT22;22094;52.130;5.598;2022-11-14T15:53:47;7.80;99.90
23717;DHT22;22094;52.130;5.598;2022-11-14T15:56:13;7.80;99.90
23717;DHT22;22094;52.130;5.598;2022-11-14T15:58:39;7.80;99.90
23717;DHT22;22094;52.130;5.598;2022-11-14T16:01:12;7.80;99.90
23717;DHT22;22094;52.130;5.598;2022-11-14T16:03:43;7.80;99.90
23717;DHT22;22094;52.130;5.598;2022-11-14T16:06:09;7.80;99.90
23717;DHT22;22094;52.130;5.598;2022-11-14T16:08:35;7.90;99.90
23717;DHT22;22094;52.130;5.598;2022-11-14T16:11:00;7.80;99.90
23717;DHT22;22094;52.130;5.598;2022-11-14T16:13:26;7.70;99.90
23717;DHT22;22094;52.130;5.598;2022-11-14T16:15:51;7.50;99.90
23717;DHT22;22094;52.130;5.598;2022-11-14T16:18:17;7.30;99.90
23717;DHT22;22094;52.130;5.598;2022-11-14T16:20:42;7.10;99.90
23717;DHT22;22094;52.130;5.598;2022-11-14T16:23:10;7.00;99.90
23717;DHT22;22094;52.130;5.598;2022-11-14T16:25:37;6.80;99.90
23717;DHT22;22094;52.130;5.598;2022-11-14T16:28:03;6.70;99.90
23717;DHT22;22094;52.130;5.598;2022-11-14T16:30:28;6.60;99.90
23717;DHT22;22094;52.130;5.598;2022-11-14T16:32:54;6.40;99.90
23717;DHT22;22094;52.130;5.598;2022-11-14T16:35:24;6.30;99.90
23717;DHT22;22094;52.130;5.598;2022-11-14T16:37:50;6.20;99.90
23717;DHT22;22094;52.130;5.598;2022-11-14T16:40:22;6.10;99.90
23717;DHT22;22094;52.130;5.598;2022-11-14T16:42:49;6.00;99.90
23717;DHT22;22094;52.130;5.598;2022-11-14T16:45:16;5.90;99.90
23717;DHT22;22094;52.130;5.598;2022-11-14T16:47:42;5.80;99.90
23717;DHT22;22094;52.130;5.598;2022-11-14T16:50:08;5.70;99.90
23717;DHT22;22094;52.130;5.598;2022-11-14T16:52:33;5.60;99.90
23717;DHT22;22094;52.130;5.598;2022-11-14T16:54:59;5.60;99.90
23717;DHT22;22094;52.130;5.598;2022-11-14T16:57:24;5.50;99.90
23717;DHT22;22094;52.130;5.598;2022-11-14T16:59:50;5.50;99.90
23717;DHT22;22094;52.130;5.598;2022-11-14T17:02:16;5.40;99.90
23717;DHT22;22094;52.130;5.598;2022-11-14T17:04:42;5.30;99.90
23717;DHT22;22094;52.130;5.598;2022-11-14T17:07:10;5.20;99.90
23717;DHT22;22094;52.130;5.598;2022-11-14T17:09:36;5.10;99.90
23717;DHT22;22094;52.130;5.598;2022-11-14T17:12:02;5.10;99.90
23717;DHT22;22094;52.130;5.598;2022-11-14T17:14:28;5.10;99.90
23717;DHT22;22094;52.130;5.598;2022-11-14T17:16:53;4.90;99.90
23717;DHT22;22094;52.130;5.598;2022-11-14T17:19:19;4.80;99.90
23717;DHT22;22094;52.130;5.598;2022-11-14T17:21:45;4.80;99.90
23717;DHT22;22094;52.130;5.598;2022-11-14T17:24:10;4.70;99.90
23717;DHT22;22094;52.130;5.598;2022-11-14T17:26:36;4.60;99.90
23717;DHT22;22094;52.130;5.598;2022-11-14T17:29:02;4.60;99.90
23717;DHT22;22094;52.130;5.598;2022-11-14T17:31:29;4.50;99.90
23717;DHT22;22094;52.130;5.598;2022-11-14T17:33:56;4.60;99.90
23717;DHT22;22094;52.130;5.598;2022-11-14T17:36:23;4.70;99.90
23717;DHT22;22094;52.130;5.598;2022-11-14T17:38:49;4.70;99.90
23717;DHT22;22094;52.130;5.598;2022-11-14T17:41:15;4.90;99.90
23717;DHT22;22094;52.130;5.598;2022-11-14T17:43:41;5.20;99.90
23717;DHT22;22094;52.130;5.598;2022-11-14T17:46:06;5.30;99.90
23717;DHT22;22094;52.130;5.598;2022-11-14T17:48:32;5.30;99.90
23717;DHT22;22094;52.130;5.598;2022-11-14T17:51:03;5.40;99.90
23717;DHT22;22094;52.130;5.598;2022-11-14T17:53:28;5.50;99.90
23717;DHT22;22094;52.130;5.598;2022-11-14T17:55:55;5.60;99.90
23717;DHT22;22094;52.130;5.598;2022-11-14T17:58:21;5.70;99.90
23717;DHT22;22094;52.130;5.598;2022-11-14T18:00:47;5.80;99.90
23717;DHT22;22094;52.130;5.598;2022-11-14T18:03:14;5.90;99.90
23717;DHT22;22094;52.130;5.598;2022-11-14T18:05:39;5.90;99.90
23717;DHT22;22094;52.130;5.598;2022-11-14T18:08:05;5.90;99.90
23717;DHT22;22094;52.130;5.598;2022-11-14T18:10:30;6.00;99.90
23717;DHT22;22094;52.130;5.598;2022-11-14T18:12:56;6.10;99.90
23717;DHT22;22094;52.130;5.598;2022-11-14T18:15:21;6.10;99.90
23717;DHT22;22094;52.130;5.598;2022-11-14T18:17:47;6.20;99.90
23717;DHT22;22094;52.130;5.598;2022-11-14T18:20:12;6.20;99.90